createdAt,value
2018-02-12T00:00:48.267Z,3.00
2018-02-12T00:01:52.632Z,3.00
2018-02-12T00:03:06.821Z,3.00
2018-02-12T00:04:11.198Z,3.00
2018-02-12T00:05:16.274Z,3.10
2018-02-12T00:06:20.647Z,3.10
2018-02-12T00:07:25.243Z,3.10
2018-02-12T00:08:30.378Z,3.10
2018-02-12T00:09:35.473Z,3.10
2018-02-12T00:10:39.803Z,3.00
2018-02-12T00:11:44.916Z,3.00
2018-02-12T00:12:50.156Z,2.90
2018-02-12T00:13:55.544Z,3.00
2018-02-12T00:14:59.845Z,2.90
2018-02-12T00:16:04.190Z,3.00
2018-02-12T00:17:08.554Z,3.00
2018-02-12T00:18:13.839Z,3.00
2018-02-12T00:19:18.451Z,3.00
2018-02-12T00:20:24.979Z,2.90
2018-02-12T00:21:29.304Z,2.90
2018-02-12T00:22:38.216Z,2.90
2018-02-12T00:23:42.573Z,2.90
2018-02-12T00:24:46.953Z,2.90
2018-02-12T00:25:52.091Z,2.90
2018-02-12T00:26:56.726Z,2.90
2018-02-12T00:28:01.044Z,2.90
2018-02-12T00:29:05.399Z,2.90
2018-02-12T00:30:10.595Z,3.00
2018-02-12T00:31:14.951Z,3.00
2018-02-12T00:32:20.848Z,2.90
2018-02-12T00:33:25.539Z,2.90
2018-02-12T00:34:29.914Z,2.90
2018-02-12T00:35:35.029Z,3.00
2018-02-12T00:36:40.160Z,2.90
2018-02-12T00:37:45.248Z,2.80
2018-02-12T00:38:50.855Z,2.80
2018-02-12T00:39:55.494Z,2.80
2018-02-12T00:41:00.394Z,2.70
2018-02-12T00:42:04.795Z,2.70
2018-02-12T00:43:09.108Z,2.70
2018-02-12T00:44:13.488Z,2.60
2018-02-12T00:45:18.626Z,2.50
2018-02-12T00:46:23.244Z,2.50
2018-02-12T00:47:27.659Z,2.60
2018-02-12T00:48:31.988Z,2.60
2018-02-12T00:49:36.364Z,2.60
2018-02-12T00:50:40.729Z,2.60
2018-02-12T00:51:46.551Z,2.70
2018-02-12T00:52:52.776Z,2.70
2018-02-12T00:53:57.127Z,2.70
2018-02-12T00:55:04.486Z,2.60
2018-02-12T00:56:08.871Z,2.60
2018-02-12T00:57:13.205Z,2.60
2018-02-12T00:58:17.712Z,2.60
2018-02-12T00:59:22.365Z,2.60
2018-02-12T01:00:26.759Z,2.50
2018-02-12T01:01:33.160Z,2.50
2018-02-12T01:02:41.334Z,2.40
2018-02-12T01:03:48.638Z,2.50
2018-02-12T01:04:53.012Z,2.50
2018-02-12T01:05:57.736Z,2.50
2018-02-12T01:07:03.291Z,2.50
2018-02-12T01:08:08.483Z,2.50
2018-02-12T01:09:13.798Z,2.50
2018-02-12T01:10:18.255Z,2.40
2018-02-12T01:11:29.543Z,2.40
2018-02-12T01:12:38.828Z,2.40
2018-02-12T01:13:53.299Z,2.40
2018-02-12T01:15:08.994Z,2.40
2018-02-12T01:16:19.384Z,2.40
2018-02-12T01:17:29.667Z,2.40
2018-02-12T01:18:34.778Z,2.40
2018-02-12T01:19:39.873Z,2.40
2018-02-12T01:20:44.441Z,2.40
2018-02-12T01:21:48.906Z,2.40
2018-02-12T01:22:53.249Z,2.30
2018-02-12T01:23:58.789Z,2.30
2018-02-12T01:25:03.139Z,2.30
2018-02-12T01:26:07.456Z,2.30
2018-02-12T01:27:11.872Z,2.30
2018-02-12T01:28:16.289Z,2.30
2018-02-12T01:29:20.622Z,2.30
2018-02-12T01:30:26.004Z,2.30
2018-02-12T01:31:30.340Z,2.30
2018-02-12T01:32:36.679Z,2.30
2018-02-12T01:33:44.287Z,2.30
2018-02-12T01:34:49.400Z,2.30
2018-02-12T01:35:53.932Z,2.30
2018-02-12T01:36:59.317Z,2.30
2018-02-12T01:38:03.667Z,2.30
2018-02-12T01:39:08.789Z,2.40
2018-02-12T01:40:13.122Z,2.40
2018-02-12T01:41:17.438Z,2.40
2018-02-12T01:42:21.837Z,2.40
2018-02-12T01:43:26.552Z,2.40
2018-02-12T01:44:30.998Z,2.40
2018-02-12T01:45:35.331Z,2.40
2018-02-12T01:46:39.647Z,2.40
2018-02-12T01:47:43.958Z,2.40
2018-02-12T01:48:49.756Z,2.40
2018-02-12T01:49:58.942Z,2.40
2018-02-12T01:51:03.261Z,2.40
2018-02-12T01:52:07.617Z,2.40
2018-02-12T01:53:11.972Z,2.40
2018-02-12T01:54:16.304Z,2.40
2018-02-12T01:55:20.653Z,2.40
2018-02-12T01:56:25.271Z,2.40
2018-02-12T01:57:30.947Z,2.40
2018-02-12T01:58:35.322Z,2.40
2018-02-12T01:59:39.647Z,2.30
2018-02-12T02:00:44.799Z,2.20
2018-02-12T02:01:49.142Z,2.20
2018-02-12T02:02:53.787Z,2.30
2018-02-12T02:03:59.051Z,2.30
2018-02-12T02:05:03.375Z,2.30
2018-02-12T02:06:07.714Z,2.30
2018-02-12T02:07:12.056Z,2.30
2018-02-12T02:08:17.321Z,2.30
2018-02-12T02:09:22.445Z,2.30
2018-02-12T02:10:27.100Z,2.30
2018-02-12T02:11:31.439Z,2.20
2018-02-12T02:12:35.777Z,2.20
2018-02-12T02:13:40.118Z,2.10
2018-02-12T02:14:44.491Z,2.10
2018-02-12T02:15:49.130Z,2.10
2018-02-12T02:16:53.505Z,2.20
2018-02-12T02:18:01.113Z,2.10
2018-02-12T02:19:05.468Z,2.10
2018-02-12T02:20:10.260Z,2.10
2018-02-12T02:21:14.618Z,2.10
2018-02-12T02:22:19.294Z,2.10
2018-02-12T02:23:24.512Z,2.10
2018-02-12T02:24:28.853Z,2.10
2018-02-12T02:25:33.250Z,2.10
2018-02-12T02:26:38.350Z,2.10
2018-02-12T02:27:42.686Z,2.10
2018-02-12T02:28:48.032Z,2.10
2018-02-12T02:29:52.394Z,2.10
2018-02-12T02:30:56.738Z,2.10
2018-02-12T02:32:01.079Z,2.10
2018-02-12T02:33:05.415Z,2.20
2018-02-12T02:34:09.792Z,2.10
2018-02-12T02:35:14.571Z,2.10
2018-02-12T02:36:19.681Z,2.00
2018-02-12T02:37:24.833Z,2.10
2018-02-12T02:38:29.174Z,2.00
2018-02-12T02:39:34.036Z,2.10
2018-02-12T02:40:39.163Z,2.10
2018-02-12T02:41:44.660Z,2.10
2018-02-12T02:42:49.016Z,2.10
2018-02-12T02:43:54.198Z,2.20
2018-02-12T02:44:58.608Z,2.20
2018-02-12T02:46:02.952Z,2.20
2018-02-12T02:47:08.045Z,2.20
2018-02-12T02:48:12.702Z,2.20
2018-02-12T02:49:17.821Z,2.30
2018-02-12T02:50:23.000Z,2.30
2018-02-12T02:51:27.363Z,2.30
2018-02-12T02:52:32.490Z,2.30
2018-02-12T02:53:38.008Z,2.30
2018-02-12T02:54:43.407Z,2.30
2018-02-12T02:55:47.984Z,2.30
2018-02-12T02:56:52.744Z,2.30
2018-02-12T02:57:57.498Z,2.30
2018-02-12T02:59:02.663Z,2.30
2018-02-12T03:00:07.979Z,2.30
2018-02-12T03:01:13.002Z,2.30
2018-02-12T03:02:17.494Z,2.30
2018-02-12T03:03:22.579Z,2.30
2018-02-12T03:04:27.028Z,2.30
2018-02-12T03:05:32.194Z,2.30
2018-02-12T03:06:36.575Z,2.30
2018-02-12T03:07:41.913Z,2.30
2018-02-12T03:08:46.535Z,2.30
2018-02-12T03:09:51.254Z,2.20
2018-02-12T03:10:55.577Z,2.20
2018-02-12T03:12:01.121Z,2.30
2018-02-12T03:13:05.806Z,2.30
2018-02-12T03:14:10.818Z,2.20
2018-02-12T03:15:19.290Z,2.20
2018-02-12T03:16:24.823Z,2.20
2018-02-12T03:17:29.139Z,2.20
2018-02-12T03:18:33.493Z,2.20
2018-02-12T03:19:37.834Z,2.20
2018-02-12T03:20:42.424Z,2.20
2018-02-12T03:21:46.793Z,2.30
2018-02-12T03:22:51.882Z,2.20
2018-02-12T03:23:56.364Z,2.20
2018-02-12T03:25:00.717Z,2.20
2018-02-12T03:26:06.011Z,2.20
2018-02-12T03:27:10.629Z,2.20
2018-02-12T03:28:15.048Z,2.20
2018-02-12T03:29:21.517Z,2.30
2018-02-12T03:30:25.876Z,2.30
2018-02-12T03:31:30.231Z,2.20
2018-02-12T03:32:35.054Z,2.20
2018-02-12T03:33:39.685Z,2.30
2018-02-12T03:34:44.053Z,2.30
2018-02-12T03:35:48.488Z,2.30
2018-02-12T03:36:52.860Z,2.30
2018-02-12T03:37:57.253Z,2.20
2018-02-12T03:39:01.583Z,2.30
2018-02-12T03:40:06.187Z,2.20
2018-02-12T03:41:10.530Z,2.20
2018-02-12T03:42:14.867Z,2.20
2018-02-12T03:43:19.982Z,2.20
2018-02-12T03:44:24.316Z,2.20
2018-02-12T03:45:29.899Z,2.20
2018-02-12T03:46:34.667Z,2.10
2018-02-12T03:47:39.837Z,2.20
2018-02-12T03:48:44.184Z,2.20
2018-02-12T03:49:49.440Z,2.20
2018-02-12T03:50:54.155Z,2.10
2018-02-12T03:51:58.483Z,2.20
2018-02-12T03:53:03.138Z,2.20
2018-02-12T03:54:07.498Z,2.20
2018-02-12T03:55:11.889Z,2.30
2018-02-12T03:56:16.262Z,2.30
2018-02-12T03:57:20.701Z,2.30
2018-02-12T03:58:25.797Z,2.40
2018-02-12T03:59:30.455Z,2.30
2018-02-12T04:00:35.050Z,2.40
2018-02-12T04:01:40.186Z,2.40
2018-02-12T04:02:44.524Z,2.40
2018-02-12T04:03:48.923Z,2.40
2018-02-12T04:04:53.276Z,2.50
2018-02-12T04:05:57.875Z,2.50
2018-02-12T04:07:02.289Z,2.50
2018-02-12T04:08:06.612Z,2.50
2018-02-12T04:09:10.996Z,2.50
2018-02-12T04:10:15.372Z,2.60
2018-02-12T04:11:19.762Z,2.50
2018-02-12T04:12:25.278Z,2.50
2018-02-12T04:13:29.977Z,2.50
2018-02-12T04:14:34.323Z,2.50
2018-02-12T04:15:39.430Z,2.40
2018-02-12T04:16:43.776Z,2.40
2018-02-12T04:17:48.148Z,2.30
2018-02-12T04:18:52.773Z,2.40
2018-02-12T04:19:58.091Z,2.40
2018-02-12T04:21:02.484Z,2.40
2018-02-12T04:22:06.991Z,2.40
2018-02-12T04:23:11.419Z,2.50
2018-02-12T04:24:15.772Z,2.40
2018-02-12T04:25:20.696Z,2.40
2018-02-12T04:26:25.495Z,2.40
2018-02-12T04:27:29.886Z,2.40
2018-02-12T04:28:35.033Z,2.40
2018-02-12T04:29:39.444Z,2.40
2018-02-12T04:30:43.909Z,2.40
2018-02-12T04:31:48.531Z,2.40
2018-02-12T04:32:53.076Z,2.40
2018-02-12T04:33:57.446Z,2.40
2018-02-12T04:35:01.767Z,2.40
2018-02-12T04:36:06.134Z,2.30
2018-02-12T04:37:10.506Z,2.30
2018-02-12T04:38:15.123Z,2.30
2018-02-12T04:39:19.430Z,2.20
2018-02-12T04:40:23.764Z,2.20
2018-02-12T04:41:28.081Z,2.20
2018-02-12T04:42:32.395Z,2.20
2018-02-12T04:43:37.775Z,2.20
2018-02-12T04:44:43.189Z,2.20
2018-02-12T04:45:48.322Z,2.20
2018-02-12T04:46:53.428Z,2.20
2018-02-12T04:47:57.730Z,2.10
2018-02-12T04:49:02.104Z,2.10
2018-02-12T04:50:05.933Z,2.10
2018-02-12T04:51:10.567Z,2.10
2018-02-12T04:52:14.895Z,2.10
2018-02-12T04:53:19.996Z,2.20
2018-02-12T04:54:24.324Z,2.20
2018-02-12T04:55:29.411Z,2.20
2018-02-12T04:56:33.786Z,2.20
2018-02-12T04:57:38.413Z,2.20
2018-02-12T04:58:42.743Z,2.20
2018-02-12T04:59:47.127Z,2.20
2018-02-12T05:00:51.449Z,2.20
2018-02-12T05:01:57.650Z,2.20
2018-02-12T05:03:02.761Z,2.20
2018-02-12T05:04:08.261Z,2.20
2018-02-12T05:05:12.618Z,2.10
2018-02-12T05:06:17.744Z,2.10
2018-02-12T05:07:22.889Z,2.10
2018-02-12T05:08:27.215Z,2.10
2018-02-12T05:09:31.542Z,2.10
2018-02-12T05:10:36.136Z,2.10
2018-02-12T05:11:40.724Z,2.10
2018-02-12T05:12:45.206Z,2.10
2018-02-12T05:13:50.414Z,2.20
2018-02-12T05:14:54.756Z,2.20
2018-02-12T05:15:59.864Z,2.10
2018-02-12T05:17:04.628Z,2.20
2018-02-12T05:18:09.008Z,2.20
2018-02-12T05:19:14.489Z,2.10
2018-02-12T05:20:18.836Z,2.10
2018-02-12T05:21:23.962Z,2.10
2018-02-12T05:22:29.250Z,2.20
2018-02-12T05:23:33.911Z,2.10
2018-02-12T05:24:39.201Z,2.20
2018-02-12T05:25:43.655Z,2.20
2018-02-12T05:26:48.770Z,2.20
2018-02-12T05:27:53.590Z,2.20
2018-02-12T05:28:57.961Z,2.20
2018-02-12T05:30:03.451Z,2.10
2018-02-12T05:31:08.604Z,2.10
2018-02-12T05:32:13.045Z,2.10
2018-02-12T05:33:17.477Z,2.10
2018-02-12T05:34:22.372Z,2.10
2018-02-12T05:35:26.803Z,2.20
2018-02-12T05:36:32.342Z,2.20
2018-02-12T05:37:37.500Z,2.20
2018-02-12T05:38:42.053Z,2.10
2018-02-12T05:39:46.406Z,2.10
2018-02-12T05:40:51.521Z,2.00
2018-02-12T05:41:56.663Z,2.00
2018-02-12T05:43:03.063Z,2.00
2018-02-12T05:44:07.467Z,1.90
2018-02-12T05:45:11.848Z,2.00
2018-02-12T05:46:16.181Z,2.00
2018-02-12T05:47:20.538Z,2.00
2018-02-12T05:48:25.662Z,2.00
2018-02-12T05:49:31.152Z,2.00
2018-02-12T05:50:35.511Z,1.90
2018-02-12T05:51:40.642Z,1.90
2018-02-12T05:52:45.746Z,1.90
2018-02-12T05:53:50.091Z,1.90
2018-02-12T05:54:54.462Z,1.90
2018-02-12T05:55:59.079Z,1.90
2018-02-12T05:57:03.404Z,1.90
2018-02-12T05:58:08.523Z,1.90
2018-02-12T05:59:13.647Z,1.80
2018-02-12T06:00:18.776Z,1.80
2018-02-12T06:01:23.882Z,1.80
2018-02-12T06:02:28.533Z,1.80
2018-02-12T06:03:32.873Z,1.80
2018-02-12T06:04:37.206Z,1.80
2018-02-12T06:05:42.674Z,1.90
2018-02-12T06:06:47.805Z,1.90
2018-02-12T06:07:52.269Z,1.90
2018-02-12T06:20:54.493Z,1.80
2018-02-12T06:21:58.967Z,1.90
2018-02-12T06:23:03.378Z,1.90
2018-02-12T06:24:07.853Z,1.90
2018-02-12T06:25:13.124Z,1.90
2018-02-12T06:26:18.267Z,1.90
2018-02-12T06:27:22.720Z,2.00
2018-02-12T06:28:27.150Z,2.00
2018-02-12T06:29:32.400Z,2.10
2018-02-12T06:30:36.951Z,2.10
2018-02-12T06:31:41.406Z,2.10
2018-02-12T06:32:46.572Z,2.00
2018-02-12T06:33:51.183Z,2.00
2018-02-12T06:34:55.694Z,2.00
2018-02-12T06:36:00.103Z,2.00
2018-02-12T06:37:04.611Z,2.00
2018-02-12T06:38:09.108Z,2.10
2018-02-12T06:39:13.800Z,2.10
2018-02-12T06:40:19.080Z,2.10
2018-02-12T06:41:23.641Z,2.10
2018-02-12T06:42:30.168Z,2.10
2018-02-12T06:43:34.602Z,2.10
2018-02-12T06:44:39.953Z,2.10
2018-02-12T06:45:44.908Z,2.10
2018-02-12T06:46:49.526Z,2.10
2018-02-12T06:47:53.927Z,2.10
2018-02-12T06:48:58.418Z,2.10
2018-02-12T06:50:03.187Z,2.10
2018-02-12T06:51:08.503Z,2.10
2018-02-12T06:52:13.823Z,2.10
2018-02-12T06:53:19.626Z,2.10
2018-02-12T06:54:24.236Z,2.10
2018-02-12T06:55:29.406Z,2.00
2018-02-12T06:56:33.941Z,2.00
2018-02-12T06:57:38.348Z,2.00
2018-02-12T06:58:43.140Z,2.00
2018-02-12T06:59:47.651Z,2.00
2018-02-12T07:00:52.257Z,2.00
2018-02-12T07:02:00.866Z,2.00
2018-02-12T07:03:05.660Z,2.00
2018-02-12T07:04:10.139Z,2.00
2018-02-12T07:05:14.932Z,1.90
2018-02-12T07:06:19.433Z,2.00
2018-02-12T07:07:23.858Z,2.00
2018-02-12T07:08:28.283Z,2.00
2018-02-12T07:09:33.463Z,2.00
2018-02-12T07:10:37.927Z,2.00
2018-02-12T07:11:42.692Z,2.00
2018-02-12T07:12:47.821Z,2.00
2018-02-12T07:13:53.183Z,2.00
2018-02-12T07:14:57.582Z,2.00
2018-02-12T07:16:02.092Z,1.90
2018-02-12T07:17:06.616Z,1.90
2018-02-12T07:18:11.423Z,1.90
2018-02-12T07:19:15.923Z,1.90
2018-02-12T07:20:20.544Z,1.90
2018-02-12T07:21:25.183Z,1.90
2018-02-12T07:22:29.657Z,1.90
2018-02-12T07:23:34.142Z,1.90
2018-02-12T07:24:39.620Z,2.00
2018-02-12T07:25:44.163Z,2.00
2018-02-12T07:26:49.491Z,1.90
2018-02-12T07:27:53.972Z,1.90
2018-02-12T07:28:58.490Z,2.00
2018-02-12T07:30:03.135Z,2.00
2018-02-12T07:31:08.373Z,2.00
2018-02-12T07:32:13.642Z,2.00
2018-02-12T07:33:18.122Z,2.00
2018-02-12T07:34:23.464Z,2.10
2018-02-12T07:35:28.507Z,2.10
2018-02-12T07:36:34.308Z,2.20
2018-02-12T07:37:39.902Z,2.20
2018-02-12T07:38:44.300Z,2.20
2018-02-12T07:39:48.634Z,2.30
2018-02-12T07:40:53.080Z,2.30
2018-02-12T07:42:01.128Z,2.20
2018-02-12T07:43:05.472Z,2.20
2018-02-12T07:44:10.910Z,2.20
2018-02-12T07:45:17.023Z,2.20
2018-02-12T07:46:33.947Z,2.10
2018-02-12T07:47:39.024Z,2.20
2018-02-12T07:48:43.395Z,2.20
2018-02-12T07:49:48.632Z,2.40
2018-02-12T07:50:55.945Z,2.40
2018-02-12T07:52:01.534Z,2.40
2018-02-12T07:53:06.660Z,2.40
2018-02-12T07:54:11.816Z,2.50
2018-02-12T07:55:16.207Z,2.50
2018-02-12T07:56:21.361Z,2.50
2018-02-12T07:57:26.042Z,2.50
2018-02-12T07:58:31.234Z,2.40
2018-02-12T07:59:35.603Z,2.40
2018-02-12T08:00:40.044Z,2.30
2018-02-12T08:01:45.346Z,2.30
2018-02-12T08:02:49.861Z,2.30
2018-02-12T08:03:54.477Z,2.30
2018-02-12T08:05:02.363Z,2.30
2018-02-12T08:06:06.716Z,2.30
2018-02-12T08:07:11.055Z,2.30
2018-02-12T08:08:16.233Z,2.40
2018-02-12T08:09:20.553Z,2.30
2018-02-12T08:10:25.240Z,2.40
2018-02-12T08:11:29.650Z,2.40
2018-02-12T08:12:33.965Z,2.40
2018-02-12T08:13:38.363Z,2.40
2018-02-12T08:14:42.694Z,2.40
2018-02-12T08:15:47.064Z,2.40
2018-02-12T08:16:51.753Z,2.40
2018-02-12T08:17:56.902Z,2.40
2018-02-12T08:19:02.516Z,2.40
2018-02-12T08:20:08.688Z,2.50
2018-02-12T08:21:13.070Z,2.50
2018-02-12T08:22:17.490Z,2.50
2018-02-12T08:23:22.900Z,2.60
2018-02-12T08:24:28.134Z,2.70
2018-02-12T08:25:32.496Z,2.70
2018-02-12T08:26:39.423Z,2.70
2018-02-12T08:27:47.213Z,2.60
2018-02-12T08:28:52.327Z,2.60
2018-02-12T08:29:57.496Z,2.60
2018-02-12T08:31:01.851Z,2.60
2018-02-12T08:32:06.212Z,2.70
2018-02-12T08:33:10.698Z,2.70
2018-02-12T08:34:15.804Z,2.70
2018-02-12T08:35:21.235Z,2.70
2018-02-12T08:36:25.869Z,2.70
2018-02-12T08:37:32.306Z,2.70
2018-02-12T08:38:37.634Z,2.70
2018-02-12T08:39:43.446Z,2.80
2018-02-12T08:40:47.807Z,2.80
2018-02-12T08:41:53.344Z,2.80
2018-02-12T08:43:06.193Z,2.80
2018-02-12T08:44:10.570Z,2.80
2018-02-12T08:45:17.138Z,2.90
2018-02-12T08:46:21.630Z,2.90
2018-02-12T08:47:27.627Z,2.90
2018-02-12T08:48:32.085Z,2.90
2018-02-12T08:49:38.592Z,3.00
2018-02-12T08:50:43.763Z,3.10
2018-02-12T08:51:48.234Z,3.10
2018-02-12T08:52:52.615Z,3.10
2018-02-12T08:53:57.107Z,3.10
2018-02-12T08:55:02.214Z,3.10
2018-02-12T08:56:07.038Z,3.10
2018-02-12T08:57:12.179Z,3.00
2018-02-12T08:58:16.551Z,3.00
2018-02-12T08:59:20.950Z,3.00
2018-02-12T09:00:25.962Z,3.10
2018-02-12T09:01:30.343Z,3.00
2018-02-12T09:02:35.923Z,3.00
2018-02-12T09:03:40.666Z,3.00
2018-02-12T09:04:45.010Z,3.10
2018-02-12T09:05:50.757Z,3.10
2018-02-12T09:06:55.210Z,3.10
2018-02-12T09:07:59.577Z,3.20
2018-02-12T09:09:05.678Z,3.10
2018-02-12T09:10:10.141Z,3.10
2018-02-12T09:11:15.853Z,3.10
2018-02-12T09:12:21.149Z,3.00
2018-02-12T09:13:25.618Z,3.10
2018-02-12T09:14:30.389Z,3.00
2018-02-12T09:15:38.455Z,3.10
2018-02-12T09:16:42.937Z,3.00
2018-02-12T09:17:48.299Z,3.00
2018-02-12T09:18:54.090Z,3.10
2018-02-12T09:19:59.406Z,3.10
2018-02-12T09:21:04.739Z,3.10
2018-02-12T09:22:10.162Z,3.10
2018-02-12T09:23:18.639Z,3.10
2018-02-12T09:24:24.166Z,3.10
2018-02-12T09:26:58.279Z,3.00
2018-02-12T09:28:03.923Z,3.00
2018-02-12T09:29:08.546Z,3.10
2018-02-12T09:30:13.944Z,3.00
2018-02-12T09:31:30.599Z,3.00
2018-02-12T09:32:35.739Z,3.20
2018-02-12T09:33:42.810Z,3.30
2018-02-12T09:34:52.293Z,3.30
2018-02-12T09:37:03.007Z,3.30
2018-02-12T09:38:08.165Z,3.40
2018-02-12T09:39:12.524Z,3.40
2018-02-12T09:40:21.116Z,3.50
2018-02-12T09:41:27.186Z,3.50
2018-02-12T09:42:32.376Z,3.40
2018-02-12T09:43:36.751Z,3.40
2018-02-12T09:44:41.906Z,3.50
2018-02-12T09:45:46.258Z,3.60
2018-02-12T09:46:51.367Z,3.60
2018-02-12T09:47:56.023Z,3.60
2018-02-12T09:49:00.365Z,3.50
2018-02-12T09:50:05.520Z,3.50
2018-02-12T09:51:10.649Z,3.50
2018-02-12T09:53:33.027Z,3.40
2018-02-12T09:54:37.722Z,3.40
2018-02-12T09:55:42.541Z,3.40
2018-02-12T09:56:46.898Z,3.40
2018-02-12T09:57:51.579Z,3.40
2018-02-12T09:58:56.151Z,3.40
2018-02-12T10:00:01.771Z,3.40
2018-02-12T10:01:06.419Z,3.30
2018-02-12T10:02:11.539Z,3.30
2018-02-12T10:03:16.674Z,3.20
2018-02-12T10:04:22.459Z,3.20
2018-02-12T10:05:30.248Z,3.20
2018-02-12T10:06:36.513Z,3.20
2018-02-12T10:07:41.507Z,3.20
2018-02-12T10:08:45.858Z,3.20
2018-02-12T10:09:50.255Z,3.10
2018-02-12T10:10:55.391Z,3.10
2018-02-12T10:11:59.791Z,3.10
2018-02-12T10:13:04.180Z,3.10
2018-02-12T10:14:21.463Z,3.00
2018-02-12T10:15:25.921Z,3.00
2018-02-12T10:16:30.302Z,3.10
2018-02-12T10:17:35.444Z,3.10
2018-02-12T10:18:39.841Z,3.10
2018-02-12T10:19:44.206Z,3.10
2018-02-12T10:20:49.656Z,3.20
2018-02-12T10:21:54.000Z,3.10
2018-02-12T10:22:58.423Z,3.10
2018-02-12T10:24:03.841Z,3.20
2018-02-12T10:25:08.294Z,3.20
2018-02-12T10:26:12.675Z,3.20
2018-02-12T10:27:20.568Z,3.10
2018-02-12T10:28:41.128Z,3.10
2018-02-12T10:29:45.489Z,3.20
2018-02-12T10:31:05.196Z,3.10
2018-02-12T10:32:09.716Z,3.20
2018-02-12T10:33:14.059Z,3.10
2018-02-12T10:34:18.944Z,3.20
2018-02-12T10:35:23.326Z,3.20
2018-02-12T10:36:28.624Z,3.20
2018-02-12T10:37:35.005Z,3.20
2018-02-12T10:38:40.215Z,3.30
2018-02-12T10:39:44.674Z,3.20
2018-02-12T10:40:49.406Z,3.30
2018-02-12T10:41:53.883Z,3.30
2018-02-12T10:43:03.061Z,3.30
2018-02-12T10:44:09.321Z,3.40
2018-02-12T10:45:16.156Z,3.60
2018-02-12T10:46:23.623Z,3.90
2018-02-12T10:47:28.286Z,4.10
2018-02-12T10:48:32.698Z,4.20
2018-02-12T10:49:38.981Z,4.30
2018-02-12T10:50:43.465Z,4.50
2018-02-12T10:51:48.644Z,4.70
2018-02-12T10:52:54.070Z,4.90
2018-02-12T10:53:58.840Z,5.00
2018-02-12T10:55:03.257Z,4.90
2018-02-12T10:56:08.446Z,5.10
2018-02-12T10:57:12.805Z,5.00
2018-02-12T10:58:17.991Z,5.30
2018-02-12T10:59:22.673Z,5.30
2018-02-12T11:00:27.413Z,5.40
2018-02-12T11:01:32.978Z,5.60
2018-02-12T11:02:37.397Z,5.70
2018-02-12T11:03:42.539Z,5.40
2018-02-12T11:04:51.565Z,5.40
2018-02-12T11:05:59.002Z,5.40
2018-02-12T11:07:03.763Z,5.20
2018-02-12T11:08:09.852Z,5.30
2018-02-12T11:09:14.184Z,5.30
2018-02-12T11:10:18.511Z,5.40
2018-02-12T11:11:23.627Z,5.70
2018-02-12T11:12:28.846Z,5.60
2018-02-12T11:13:33.493Z,5.60
2018-02-12T11:14:37.908Z,5.70
2018-02-12T11:15:46.199Z,5.60
2018-02-12T11:16:52.057Z,5.20
2018-02-12T11:17:58.202Z,5.20
2018-02-12T11:19:04.216Z,5.00
2018-02-12T11:20:08.954Z,4.70
2018-02-12T11:21:14.095Z,5.00
2018-02-12T11:22:18.473Z,5.00
2018-02-12T11:23:23.630Z,5.20
2018-02-12T11:24:29.559Z,5.20
2018-02-12T11:25:38.215Z,5.70
2018-02-12T11:26:43.726Z,5.70
2018-02-12T11:27:48.103Z,5.90
2018-02-12T11:28:53.466Z,5.90
2018-02-12T11:29:57.840Z,5.90
2018-02-12T11:31:07.160Z,6.10
2018-02-12T11:32:14.716Z,5.90
2018-02-12T11:33:19.349Z,5.90
2018-02-12T11:34:23.719Z,5.70
2018-02-12T11:35:28.119Z,5.70
2018-02-12T11:36:32.504Z,5.40
2018-02-12T11:37:37.637Z,5.20
2018-02-12T11:38:45.231Z,5.20
2018-02-12T11:39:51.145Z,5.50
2018-02-12T11:40:59.393Z,6.10
2018-02-12T11:42:03.764Z,6.10
2018-02-12T11:43:08.876Z,6.30
2018-02-12T11:44:13.982Z,6.40
2018-02-12T11:45:21.251Z,6.40
2018-02-12T11:46:25.928Z,6.40
2018-02-12T11:47:34.645Z,6.50
2018-02-12T11:48:38.986Z,6.50
2018-02-12T11:49:43.403Z,6.00
2018-02-12T11:52:04.714Z,5.50
2018-02-12T11:53:10.302Z,5.50
2018-02-12T11:54:15.992Z,5.30
2018-02-12T11:55:24.296Z,5.20
2018-02-12T11:56:30.069Z,5.20
2018-02-12T11:57:50.879Z,5.40
2018-02-12T11:58:56.304Z,5.50
2018-02-12T12:00:00.936Z,5.70
2018-02-12T12:01:06.308Z,5.90
2018-02-12T12:02:10.683Z,5.90
2018-02-12T12:03:18.697Z,5.90
2018-02-12T12:04:26.326Z,5.90
2018-02-12T12:05:32.905Z,5.70
2018-02-12T12:06:40.557Z,5.60
2018-02-12T12:07:48.246Z,5.30
2018-02-12T12:08:53.458Z,5.30
2018-02-12T12:09:59.120Z,5.30
2018-02-12T12:11:05.909Z,5.40
2018-02-12T12:12:13.514Z,5.40
2018-02-12T12:13:19.974Z,5.20
2018-02-12T12:14:24.379Z,5.10
2018-02-12T12:15:28.794Z,5.10
2018-02-12T12:16:34.620Z,4.90
2018-02-12T12:17:40.001Z,4.90
2018-02-12T12:19:02.947Z,4.90
2018-02-12T12:23:44.207Z,4.90
2018-02-12T12:25:01.896Z,4.70
2018-02-12T12:26:27.219Z,4.60
2018-02-12T12:27:33.878Z,4.60
2018-02-12T12:28:42.554Z,4.50
2018-02-12T12:29:46.898Z,4.70
2018-02-12T12:33:03.682Z,5.00
2018-02-12T12:41:19.564Z,4.90
2018-02-12T12:42:25.089Z,4.90
2018-02-12T12:47:52.967Z,4.80
2018-02-12T12:48:57.282Z,4.70
2018-02-12T12:50:05.168Z,4.70
2018-02-12T12:51:09.595Z,4.60
2018-02-12T12:52:16.117Z,4.70
2018-02-12T12:53:21.739Z,4.60
2018-02-12T12:54:26.525Z,4.70
2018-02-12T12:55:45.758Z,4.90
2018-02-12T12:56:52.252Z,4.90
2018-02-12T12:57:59.804Z,5.00
2018-02-12T12:59:18.191Z,4.90
2018-02-12T13:00:22.595Z,4.90
2018-02-12T13:01:40.378Z,4.80
2018-02-12T13:02:49.008Z,4.80
2018-02-12T13:05:19.264Z,4.90
2018-02-12T13:06:24.880Z,4.80
2018-02-12T13:07:32.439Z,4.80
2018-02-12T13:08:40.631Z,4.90
2018-02-12T13:09:47.464Z,5.00
2018-02-12T13:10:51.835Z,5.00
2018-02-12T13:12:08.569Z,5.10
2018-02-12T13:15:48.569Z,5.10
2018-02-12T13:16:53.956Z,5.10
2018-02-12T13:17:58.370Z,5.10
2018-02-12T13:19:02.715Z,5.20
2018-02-12T13:21:56.135Z,5.20
2018-02-12T13:23:03.088Z,5.40
2018-02-12T13:24:07.449Z,5.40
2018-02-12T13:25:25.439Z,5.30
2018-02-12T13:26:29.800Z,5.30
2018-02-12T13:27:34.929Z,5.40
2018-02-12T13:28:41.463Z,5.40
2018-02-12T13:29:46.971Z,5.60
2018-02-12T13:31:06.473Z,5.70
2018-02-12T13:32:30.977Z,5.70
2018-02-12T13:33:48.498Z,5.70
2018-02-12T13:35:18.848Z,5.80
2018-02-12T13:43:10.871Z,5.70
2018-02-12T13:44:30.401Z,5.90
2018-02-12T13:45:53.996Z,5.90
2018-02-12T13:46:59.337Z,5.90
2018-02-12T13:48:03.777Z,5.90
2018-02-12T13:49:10.778Z,6.00
2018-02-12T13:50:16.948Z,6.10
2018-02-12T13:51:22.207Z,6.10
2018-02-12T13:52:29.788Z,5.90
2018-02-12T13:53:35.277Z,5.70
2018-02-12T13:54:52.786Z,5.60
2018-02-12T13:55:59.260Z,5.80
2018-02-12T13:57:08.853Z,5.70
2018-02-12T13:58:14.140Z,5.70
2018-02-12T13:59:22.746Z,5.60
2018-02-12T14:00:28.492Z,5.50
2018-02-12T14:01:36.113Z,5.50
2018-02-12T14:02:40.496Z,5.50
2018-02-12T14:03:44.866Z,5.50
2018-02-12T14:04:50.127Z,5.60
2018-02-12T14:05:54.884Z,5.60
2018-02-12T14:06:59.249Z,5.60
2018-02-12T14:08:04.440Z,5.70
2018-02-12T14:09:21.263Z,5.70
2018-02-12T14:10:25.760Z,5.60
2018-02-12T14:11:31.454Z,5.50
2018-02-12T14:12:36.213Z,5.50
2018-02-12T14:13:43.961Z,5.40
2018-02-12T14:14:51.487Z,5.40
2018-02-12T14:15:56.982Z,5.30
2018-02-12T14:17:03.777Z,5.30
2018-02-12T14:18:08.150Z,5.30
2018-02-12T14:19:13.600Z,5.20
2018-02-12T14:21:42.062Z,5.20
2018-02-12T14:22:46.438Z,5.10
2018-02-12T14:23:55.364Z,5.20
2018-02-12T14:26:35.506Z,5.10
2018-02-12T14:38:31.714Z,4.80
2018-02-12T14:40:06.271Z,4.90
2018-02-12T14:41:37.644Z,4.90
2018-02-12T14:46:36.714Z,4.70
2018-02-12T14:48:13.153Z,4.70
2018-02-12T14:58:27.046Z,3.50
2018-02-12T15:05:37.248Z,1.30
2018-02-12T15:11:55.008Z,0.90
2018-02-12T15:13:25.825Z,1.10
2018-02-12T15:16:47.097Z,1.10
2018-02-12T15:23:17.858Z,1.80
2018-02-12T15:33:47.440Z,2.50
2018-02-12T15:38:12.602Z,2.60
2018-02-12T15:41:16.492Z,2.70
2018-02-12T15:44:23.252Z,2.70
2018-02-12T15:45:44.943Z,2.70
2018-02-12T15:46:52.603Z,2.70
2018-02-12T15:48:23.897Z,2.70
2018-02-12T15:52:43.043Z,2.60
2018-02-12T15:53:50.053Z,2.60
2018-02-12T15:55:08.161Z,2.70
2018-02-12T15:56:12.620Z,2.60
2018-02-12T15:57:20.631Z,2.60
2018-02-12T15:58:38.288Z,2.40
2018-02-12T15:59:46.551Z,2.50
2018-02-12T16:00:51.436Z,2.50
2018-02-12T16:01:56.723Z,2.60
2018-02-12T16:03:03.533Z,2.60
2018-02-12T16:04:12.967Z,2.70
2018-02-12T16:05:18.665Z,2.80
2018-02-12T16:06:56.015Z,2.80
2018-02-12T16:08:03.446Z,2.90
2018-02-12T16:09:15.223Z,2.70
2018-02-12T16:10:25.056Z,2.70
2018-02-12T16:17:24.264Z,3.00
2018-02-12T16:18:36.679Z,3.00
2018-02-12T16:20:10.267Z,3.00
2018-02-12T16:23:39.104Z,2.90
2018-02-12T16:24:43.680Z,2.90
2018-02-12T16:27:49.562Z,2.90
2018-02-12T16:29:24.888Z,2.90
2018-02-12T16:30:49.335Z,2.80
2018-02-12T16:32:33.538Z,2.80
2018-02-12T16:34:10.970Z,2.80
2018-02-12T16:38:37.868Z,2.60
2018-02-12T16:40:21.909Z,2.60
2018-02-12T16:41:58.335Z,2.60
2018-02-12T16:48:51.825Z,2.60
2018-02-12T16:54:12.669Z,2.50
2018-02-12T17:06:56.643Z,2.40
2018-02-12T17:10:14.447Z,2.40
2018-02-12T17:17:13.574Z,2.40